Time;durP1;ratioP1;P1;durP2;ratioP2;P2;SDS_P1;SDS_P2;PMS_P1;PMS_P2;Temp;Humidity;BMP_temperature;BMP_pressure;BME280_temperature;BME280_humidity;BME280_pressure;Samples;Min_cycle;Max_cycle;Signal;HPM_P1;HPM_P2
2022/02/14 00:00:17;;;;;;;2.03;0.30;;;10.90;92.00;;;;;;5096544;28;20024;-71
2022/02/14 00:02:43;;;;;;;0.57;0.40;;;10.80;91.50;;;;;;5081836;28;20043;-72
2022/02/14 00:05:09;;;;;;;1.67;0.57;;;10.80;91.60;;;;;;5091627;28;20032;-72
2022/02/14 00:07:35;;;;;;;1.25;0.60;;;10.80;91.60;;;;;;5096297;28;20101;-72
2022/02/14 00:10:00;;;;;;;1.30;0.57;;;10.80;91.60;;;;;;5096012;28;20548;-72
2022/02/14 00:12:26;;;;;;;2.40;0.60;;;10.70;91.60;;;;;;5095244;28;20034;-72
2022/02/14 00:14:52;;;;;;;2.03;0.52;;;10.70;91.50;;;;;;5098625;28;20518;-72
2022/02/14 00:17:17;;;;;;;0.85;0.30;;;10.70;91.70;;;;;;5090403;28;20111;-71
2022/02/14 00:19:49;;;;;;;0.93;0.50;;;10.70;91.40;;;;;;5093019;28;20042;-71
2022/02/14 00:22:21;;;;;;;3.90;0.60;;;10.60;91.50;;;;;;5100499;28;20050;-72
2022/02/14 00:24:50;;;;;;;4.93;0.93;;;10.60;91.10;;;;;;5094643;28;20046;-72
2022/02/14 00:27:16;;;;;;;1.42;0.40;;;10.50;91.30;;;;;;5098653;28;20027;-72
2022/02/14 00:29:42;;;;;;;1.40;0.57;;;10.50;91.70;;;;;;5090842;28;20043;-72
2022/02/14 00:32:08;;;;;;;2.63;0.77;;;10.50;91.60;;;;;;5104275;28;20510;-71
2022/02/14 00:34:33;;;;;;;1.70;0.55;;;10.40;91.10;;;;;;5095033;28;20469;-72
2022/02/14 00:36:59;;;;;;;1.75;0.50;;;10.40;91.30;;;;;;5099365;28;20067;-72
2022/02/14 00:39:24;;;;;;;0.82;0.38;;;10.40;91.50;;;;;;5094470;28;20392;-72
2022/02/14 00:41:50;;;;;;;2.08;0.50;;;10.40;91.40;;;;;;5092408;28;20093;-72
2022/02/14 00:44:16;;;;;;;1.85;0.63;;;10.40;91.40;;;;;;5106876;28;20025;-71
2022/02/14 00:46:41;;;;;;;1.25;0.43;;;10.40;91.60;;;;;;5096425;28;20027;-71
2022/02/14 00:49:07;;;;;;;2.97;0.60;;;10.40;91.50;;;;;;5094620;28;20035;-71
2022/02/14 00:51:32;;;;;;;1.98;0.50;;;10.40;91.50;;;;;;5098505;28;20055;-71
2022/02/14 00:53:58;;;;;;;2.17;0.60;;;10.30;91.40;;;;;;5094521;28;20059;-71
2022/02/14 00:56:24;;;;;;;1.88;0.40;;;10.30;91.40;;;;;;5090220;28;20740;-71
2022/02/14 00:58:50;;;;;;;1.10;0.52;;;10.30;91.60;;;;;;5095735;28;20074;-71
2022/02/14 01:01:15;;;;;;;1.38;0.47;;;10.30;91.40;;;;;;5104191;28;20020;-71
2022/02/14 01:03:41;;;;;;;1.35;0.60;;;10.30;91.40;;;;;;5101636;28;20036;-71
2022/02/14 01:06:06;;;;;;;2.78;0.70;;;10.30;91.40;;;;;;5098467;28;20031;-71
2022/02/14 01:08:32;;;;;;;1.40;0.45;;;10.30;91.50;;;;;;5095769;28;20450;-72
2022/02/14 01:10:58;;;;;;;0.90;0.32;;;10.20;91.20;;;;;;5096712;28;20093;-72
2022/02/14 01:13:23;;;;;;;2.42;0.60;;;10.30;91.60;;;;;;5099096;28;20404;-72
2022/02/14 01:15:49;;;;;;;2.60;0.50;;;10.30;91.40;;;;;;5105366;28;20036;-72
2022/02/14 01:18:14;;;;;;;2.78;1.15;;;10.20;91.40;;;;;;5106417;28;20024;-72
2022/02/14 01:20:40;;;;;;;1.67;0.80;;;10.20;91.30;;;;;;5095642;28;20507;-72
2022/02/14 01:23:06;;;;;;;1.80;0.65;;;10.20;91.40;;;;;;5095536;28;20066;-72
2022/02/14 01:25:32;;;;;;;1.58;0.65;;;10.10;91.20;;;;;;5100209;28;20396;-72
2022/02/14 01:27:57;;;;;;;2.75;0.80;;;10.20;91.40;;;;;;5098067;28;20111;-72
2022/02/14 01:30:23;;;;;;;3.33;0.65;;;10.20;91.50;;;;;;5098405;28;20084;-72
2022/02/14 01:32:48;;;;;;;5.28;0.70;;;10.20;91.60;;;;;;5097556;28;20551;-72
2022/02/14 01:35:14;;;;;;;3.78;0.63;;;10.30;91.50;;;;;;5094464;28;20073;-72
2022/02/14 01:37:40;;;;;;;2.38;0.65;;;10.30;91.40;;;;;;5099789;28;20028;-72
2022/02/14 01:40:10;;;;;;;4.47;0.90;;;10.30;91.40;;;;;;5097897;28;20503;-72
2022/02/14 01:42:35;;;;;;;3.97;0.73;;;10.30;91.30;;;;;;5097832;28;20060;-72
2022/02/14 01:45:02;;;;;;;2.83;0.80;;;10.20;91.10;;;;;;5097842;28;20108;-72
2022/02/14 01:47:28;;;;;;;1.75;0.50;;;10.20;91.40;;;;;;5094293;28;20212;-72
2022/02/14 01:49:54;;;;;;;5.10;0.70;;;10.20;91.20;;;;;;5097758;28;20516;-72
2022/02/14 01:52:22;;;;;;;2.47;0.80;;;10.20;91.30;;;;;;5110145;28;20031;-72
2022/02/14 01:54:49;;;;;;;6.03;1.08;;;10.20;91.30;;;;;;5101141;28;20031;-72
2022/02/14 01:57:16;;;;;;;2.38;0.70;;;10.20;91.30;;;;;;5098779;28;20032;-72
2022/02/14 01:59:43;;;;;;;4.32;0.73;;;10.20;91.40;;;;;;5095329;28;20061;-72
2022/02/14 02:02:10;;;;;;;5.30;0.82;;;10.30;91.60;;;;;;5109757;28;20039;-72
2022/02/14 02:04:36;;;;;;;5.63;0.85;;;10.30;91.40;;;;;;5099441;28;20054;-72
2022/02/14 02:07:03;;;;;;;6.00;0.80;;;10.30;91.40;;;;;;5097343;28;20032;-72
2022/02/14 02:09:30;;;;;;;4.95;1.10;;;10.30;91.20;;;;;;5098575;28;20054;-72
2022/02/14 02:14:41;;;;;;;4.80;0.93;;;10.30;91.50;;;;;;5107468;28;20195;-72
2022/02/14 02:17:07;;;;;;;4.13;0.98;;;10.30;91.00;;;;;;5095217;28;20069;-72
2022/02/14 02:19:34;;;;;;;6.35;0.85;;;10.10;90.90;;;;;;5097062;28;20036;-72
2022/02/14 02:22:00;;;;;;;4.70;1.00;;;10.10;91.40;;;;;;5097666;28;20031;-72
2022/02/14 02:24:26;;;;;;;7.32;1.10;;;10.10;91.10;;;;;;5097264;28;20023;-72
2022/02/14 02:26:56;;;;;;;6.22;0.90;;;10.10;91.00;;;;;;5102981;28;20515;-72
2022/02/14 02:29:22;;;;;;;3.88;1.30;;;10.20;91.40;;;;;;5076098;28;20020;-72
2022/02/14 02:31:47;;;;;;;4.57;1.10;;;10.20;91.40;;;;;;5098541;28;20078;-72
2022/02/14 02:34:13;;;;;;;4.97;0.93;;;10.20;91.30;;;;;;5091687;28;20462;-72
2022/02/14 02:36:52;;;;;;;3.72;0.93;;;10.20;90.90;;;;;;5099626;28;20110;-72
2022/02/14 02:39:19;;;;;;;5.78;1.00;;;10.10;90.90;;;;;;5102640;28;20028;-72
2022/02/14 02:41:44;;;;;;;3.17;0.90;;;10.20;91.20;;;;;;5094158;28;20031;-72
2022/02/14 02:44:11;;;;;;;5.97;1.00;;;10.20;91.20;;;;;;5093409;28;20042;-72
2022/02/14 02:46:37;;;;;;;6.45;1.35;;;10.20;91.10;;;;;;5098817;28;20043;-72
2022/02/14 02:49:13;;;;;;;5.32;1.10;;;10.10;90.90;;;;;;5096656;28;20032;-72
2022/02/14 02:51:40;;;;;;;3.83;1.00;;;10.10;91.10;;;;;;5079192;28;20028;-72
2022/02/14 02:54:07;;;;;;;5.53;1.23;;;10.10;90.90;;;;;;5096195;28;20012;-72
2022/02/14 02:56:38;;;;;;;4.50;0.90;;;10.10;90.90;;;;;;5092268;28;20470;-72
2022/02/14 02:59:05;;;;;;;3.70;0.77;;;10.10;91.00;;;;;;5093917;28;20056;-72
2022/02/14 03:01:31;;;;;;;8.23;1.15;;;10.10;90.80;;;;;;5079906;28;20024;-72
2022/02/14 03:03:57;;;;;;;6.05;1.20;;;10.10;91.20;;;;;;5096104;28;20388;-73
2022/02/14 03:06:23;;;;;;;5.60;1.52;;;10.00;90.70;;;;;;5093578;28;20031;-73
2022/02/14 03:08:50;;;;;;;6.78;1.00;;;10.00;90.90;;;;;;5095777;28;20176;-73
2022/02/14 03:11:17;;;;;;;5.00;1.05;;;10.00;90.80;;;;;;5092919;28;20073;-73
2022/02/14 03:13:44;;;;;;;5.13;1.05;;;10.00;90.80;;;;;;5097934;28;20048;-72
2022/02/14 03:16:10;;;;;;;6.03;1.10;;;10.00;90.80;;;;;;5105023;28;20050;-72
2022/02/14 03:18:36;;;;;;;7.65;1.27;;;10.10;91.00;;;;;;5097121;28;20028;-72
2022/02/14 03:21:01;;;;;;;6.45;1.50;;;10.10;90.80;;;;;;5095550;28;20023;-72
2022/02/14 03:23:27;;;;;;;5.75;1.20;;;10.00;90.80;;;;;;5077904;28;20024;-72
2022/02/14 03:25:53;;;;;;;6.72;1.20;;;10.10;90.80;;;;;;5087231;28;20390;-72
2022/02/14 03:28:19;;;;;;;5.93;1.00;;;10.00;90.60;;;;;;5096369;28;20047;-72
2022/02/14 03:30:45;;;;;;;6.57;1.33;;;10.00;90.70;;;;;;5095253;28;20047;-72
2022/02/14 03:33:11;;;;;;;3.03;0.88;;;10.00;90.70;;;;;;5095829;28;20051;-72
2022/02/14 03:35:36;;;;;;;5.93;1.17;;;10.00;90.70;;;;;;5102839;28;20016;-72
2022/02/14 03:38:06;;;;;;;5.10;0.98;;;10.00;90.70;;;;;;5094047;28;20028;-72
2022/02/14 03:40:32;;;;;;;5.80;1.13;;;10.10;90.60;;;;;;5085361;28;20084;-72
2022/02/14 03:42:58;;;;;;;7.00;1.10;;;10.00;90.60;;;;;;5102107;28;20020;-72
2022/02/14 03:45:23;;;;;;;4.80;0.93;;;10.10;91.20;;;;;;5084974;28;20035;-72
2022/02/14 03:47:49;;;;;;;7.15;1.30;;;10.00;90.40;;;;;;5094535;28;20239;-72
2022/02/14 03:50:16;;;;;;;6.03;1.10;;;10.00;90.50;;;;;;5091143;28;20024;-72
2022/02/14 03:52:42;;;;;;;5.05;0.98;;;10.00;90.90;;;;;;5092526;28;20076;-72
2022/02/14 03:55:08;;;;;;;5.00;1.08;;;10.00;90.50;;;;;;5095625;28;20115;-72
2022/02/14 03:57:34;;;;;;;6.90;1.10;;;10.00;90.30;;;;;;5090853;28;20485;-72
2022/02/14 04:00:00;;;;;;;7.03;1.50;;;9.90;90.40;;;;;;5093975;28;20020;-71
2022/02/14 04:02:26;;;;;;;3.13;1.02;;;9.90;90.80;;;;;;5107084;28;20024;-72
2022/02/14 04:04:53;;;;;;;8.35;1.20;;;9.90;90.40;;;;;;5081946;28;20111;-72
2022/02/14 04:07:19;;;;;;;7.82;1.58;;;9.90;90.20;;;;;;5097423;28;20038;-72
2022/02/14 04:09:44;;;;;;;6.63;1.10;;;9.90;90.30;;;;;;5082952;28;20032;-72
2022/02/14 04:12:10;;;;;;;10.77;1.80;;;9.90;90.40;;;;;;5096550;28;20057;-72
2022/02/14 04:14:36;;;;;;;6.68;1.20;;;9.90;91.10;;;;;;5102759;28;20040;-72
2022/02/14 04:17:01;;;;;;;4.95;1.10;;;9.90;90.50;;;;;;5097781;28;20027;-72
2022/02/14 04:19:27;;;;;;;4.45;0.90;;;9.90;90.00;;;;;;5096317;28;20045;-72
2022/02/14 04:21:53;;;;;;;4.93;1.00;;;9.80;90.20;;;;;;5077649;28;20381;-72
2022/02/14 04:24:18;;;;;;;7.85;1.30;;;9.90;90.20;;;;;;5094465;28;20396;-72
2022/02/14 04:26:44;;;;;;;7.15;1.63;;;9.80;90.10;;;;;;5091202;28;20087;-72
2022/02/14 04:29:09;;;;;;;6.18;1.27;;;9.80;90.40;;;;;;5105226;28;20523;-72
2022/02/14 04:31:35;;;;;;;7.32;2.60;;;9.90;90.70;;;;;;5096978;28;20020;-72
2022/02/14 04:34:00;;;;;;;9.13;1.98;;;9.90;90.60;;;;;;5090182;28;20472;-72
2022/02/14 04:36:26;;;;;;;7.43;1.48;;;9.90;90.30;;;;;;5076689;28;20058;-72
2022/02/14 04:38:52;;;;;;;8.65;1.42;;;9.90;90.10;;;;;;5074741;28;20028;-71
2022/02/14 04:41:17;;;;;;;6.05;1.17;;;9.90;90.20;;;;;;5090953;28;20107;-72
2022/02/14 04:43:43;;;;;;;8.02;1.20;;;9.90;90.50;;;;;;5096629;28;20035;-71
2022/02/14 04:46:08;;;;;;;7.65;1.23;;;9.90;90.10;;;;;;5094764;28;20488;-71
2022/02/14 04:48:34;;;;;;;12.40;1.92;;;9.80;90.00;;;;;;5094132;28;20032;-72
2022/02/14 04:50:59;;;;;;;6.60;1.20;;;9.80;90.20;;;;;;5089922;28;20568;-71
2022/02/14 04:53:25;;;;;;;8.90;1.80;;;9.80;90.10;;;;;;5089846;28;20028;-71
2022/02/14 04:55:51;;;;;;;12.93;1.60;;;9.80;90.20;;;;;;5091493;28;20477;-71
2022/02/14 04:58:16;;;;;;;6.07;1.38;;;9.80;90.70;;;;;;5076859;28;20034;-71
2022/02/14 05:00:42;;;;;;;8.80;1.45;;;9.90;90.40;;;;;;5074406;28;20035;-71
2022/02/14 05:03:08;;;;;;;7.30;1.40;;;9.90;90.30;;;;;;5093994;28;20016;-71
2022/02/14 05:05:33;;;;;;;7.28;1.25;;;9.90;90.30;;;;;;5083060;28;20077;-72
2022/02/14 05:07:59;;;;;;;5.95;1.35;;;9.90;90.30;;;;;;5081249;28;20032;-72
2022/02/14 05:10:24;;;;;;;4.03;1.30;;;9.90;90.30;;;;;;5092841;28;20031;-72
2022/02/14 05:12:50;;;;;;;7.93;1.40;;;9.90;90.30;;;;;;5091701;28;20115;-72
2022/02/14 05:15:16;;;;;;;16.17;4.90;;;9.90;90.30;;;;;;5089236;28;20059;-73
2022/02/14 05:17:42;;;;;;;11.57;1.90;;;9.90;90.20;;;;;;5092607;28;20070;-72
2022/02/14 05:20:08;;;;;;;8.02;1.60;;;9.90;90.00;;;;;;5091518;28;20021;-73
2022/02/14 05:22:34;;;;;;;5.80;1.30;;;9.90;90.10;;;;;;5098454;28;20028;-73
2022/02/14 05:24:59;;;;;;;9.80;2.00;;;9.90;90.10;;;;;;5094238;28;20031;-73
2022/02/14 05:27:25;;;;;;;9.65;1.73;;;9.90;89.90;;;;;;5094217;28;20070;-73
2022/02/14 05:29:51;;;;;;;11.77;2.35;;;9.90;90.50;;;;;;5093755;28;20369;-73
2022/02/14 05:32:16;;;;;;;6.60;1.98;;;9.90;89.80;;;;;;5089484;28;20514;-73
2022/02/14 05:34:42;;;;;;;8.52;1.60;;;9.90;89.90;;;;;;5096254;28;20025;-73
2022/02/14 05:37:08;;;;;;;9.02;1.52;;;9.90;89.70;;;;;;5094049;28;20476;-73
2022/02/14 05:39:34;;;;;;;9.48;1.30;;;9.90;90.10;;;;;;5094241;28;20020;-72
2022/02/14 05:42:00;;;;;;;10.10;2.55;;;9.90;89.80;;;;;;5091503;28;20400;-73
2022/02/14 05:44:26;;;;;;;8.00;2.00;;;9.90;90.00;;;;;;5097695;28;20154;-73
2022/02/14 05:46:51;;;;;;;9.90;2.08;;;9.90;89.80;;;;;;5094423;28;20107;-73
2022/02/14 05:49:17;;;;;;;7.00;2.35;;;9.70;88.80;;;;;;5096300;28;20020;-73
2022/02/14 05:51:43;;;;;;;6.50;1.60;;;9.70;89.40;;;;;;5077806;28;20032;-73
2022/02/14 05:54:08;;;;;;;4.75;1.40;;;9.70;89.90;;;;;;5096070;28;20112;-73
2022/02/14 05:56:34;;;;;;;7.75;1.20;;;9.70;90.00;;;;;;5094804;28;20020;-73
2022/02/14 05:59:00;;;;;;;8.85;1.20;;;9.70;89.80;;;;;;5096678;28;20305;-72
2022/02/14 06:01:27;;;;;;;6.88;1.20;;;9.70;90.00;;;;;;5118561;27;20361;-73
2022/02/14 06:03:52;;;;;;;9.88;1.50;;;9.70;89.70;;;;;;5104055;28;20458;-73
2022/02/14 06:06:18;;;;;;;5.30;1.25;;;9.70;89.60;;;;;;5104505;28;20491;-73
2022/02/14 06:08:43;;;;;;;8.13;1.40;;;9.70;89.30;;;;;;5098436;28;20043;-72
2022/02/14 06:11:10;;;;;;;8.27;1.33;;;9.70;89.50;;;;;;5094069;28;20026;-73
2022/02/14 06:13:36;;;;;;;7.60;1.40;;;9.60;89.60;;;;;;5101333;28;20012;-73
2022/02/14 06:16:02;;;;;;;7.88;1.42;;;9.70;89.30;;;;;;5097070;28;20040;-73
2022/02/14 06:18:27;;;;;;;7.43;1.73;;;9.60;89.10;;;;;;5097163;28;20016;-73
2022/02/14 06:20:53;;;;;;;7.00;1.20;;;9.60;89.40;;;;;;5096788;28;20027;-73
2022/02/14 06:23:19;;;;;;;7.30;1.35;;;9.60;89.70;;;;;;5092503;28;20111;-73
2022/02/14 06:25:44;;;;;;;4.07;1.00;;;9.60;89.50;;;;;;5104798;28;20039;-73
2022/02/14 06:28:10;;;;;;;6.68;1.20;;;9.60;89.30;;;;;;5096430;28;20036;-73
2022/02/14 06:30:36;;;;;;;7.47;1.17;;;9.60;88.80;;;;;;5097530;28;20020;-73
2022/02/14 06:33:02;;;;;;;7.78;1.70;;;9.60;89.20;;;;;;5096826;28;20023;-73
2022/02/14 06:35:28;;;;;;;5.93;1.42;;;9.60;89.50;;;;;;5092513;28;20028;-73
2022/02/14 06:37:53;;;;;;;6.20;1.02;;;9.50;89.00;;;;;;5093641;28;20484;-73
2022/02/14 06:40:19;;;;;;;5.13;1.05;;;9.60;89.10;;;;;;5097956;28;20150;-73
2022/02/14 06:42:47;;;;;;;6.38;1.02;;;9.50;88.70;;;;;;5096359;28;20449;-72
2022/02/14 06:45:15;;;;;;;6.35;1.13;;;9.40;88.80;;;;;;5095707;28;20073;-72
2022/02/14 06:47:41;;;;;;;6.47;1.20;;;9.50;89.90;;;;;;5104412;28;20126;-72
2022/02/14 06:50:07;;;;;;;8.70;3.10;;;9.50;89.80;;;;;;5093778;28;20020;-72
2022/02/14 06:52:32;;;;;;;5.35;1.52;;;9.60;89.00;;;;;;5098158;28;20106;-72
2022/02/14 06:54:58;;;;;;;9.13;1.63;;;9.50;88.60;;;;;;5096348;28;20059;-72
2022/02/14 06:57:24;;;;;;;6.28;1.20;;;9.40;88.30;;;;;;5096621;28;20028;-72
2022/02/14 06:59:50;;;;;;;5.57;1.20;;;9.40;88.90;;;;;;5101863;28;20526;-72
2022/02/14 07:02:15;;;;;;;4.97;1.58;;;9.40;89.20;;;;;;5087036;28;20546;-72
2022/02/14 07:04:41;;;;;;;8.73;1.33;;;9.40;88.50;;;;;;5078780;28;20024;-73
2022/02/14 07:07:07;;;;;;;6.75;1.42;;;9.40;90.00;;;;;;5102090;28;20045;-72
2022/02/14 07:09:32;;;;;;;7.57;1.65;;;9.50;89.20;;;;;;5080799;28;20095;-72
2022/02/14 07:11:58;;;;;;;3.97;0.90;;;9.40;88.50;;;;;;5091271;28;20042;-72
2022/02/14 07:14:24;;;;;;;10.20;1.52;;;9.40;89.10;;;;;;5091760;28;20125;-72
2022/02/14 07:16:50;;;;;;;7.05;1.13;;;9.50;90.10;;;;;;5097530;28;20492;-72
2022/02/14 07:19:16;;;;;;;6.63;1.20;;;9.40;88.30;;;;;;5078404;28;20089;-72
2022/02/14 07:21:41;;;;;;;4.68;0.90;;;9.40;88.20;;;;;;5077656;28;20503;-72
2022/02/14 07:24:08;;;;;;;6.32;1.20;;;9.40;89.30;;;;;;5095862;28;20024;-72
2022/02/14 07:26:34;;;;;;;8.07;1.40;;;9.40;88.70;;;;;;5092715;28;20040;-72
2022/02/14 07:29:00;;;;;;;6.25;2.15;;;9.50;89.10;;;;;;5095045;28;20507;-72
2022/02/14 07:31:25;;;;;;;7.20;1.27;;;9.60;89.20;;;;;;5096710;28;20024;-72
2022/02/14 07:33:51;;;;;;;6.25;1.40;;;9.60;88.30;;;;;;5095893;28;20032;-72
2022/02/14 07:36:17;;;;;;;7.10;1.05;;;9.50;88.70;;;;;;5095670;28;20103;-72
2022/02/14 07:38:42;;;;;;;5.38;1.13;;;9.60;88.70;;;;;;5092583;28;20031;-73
2022/02/14 07:41:08;;;;;;;6.80;1.25;;;9.60;88.40;;;;;;5106069;28;20052;-72
2022/02/14 07:43:34;;;;;;;6.38;1.20;;;9.70;88.60;;;;;;5095886;28;20073;-72
2022/02/14 07:45:59;;;;;;;5.90;0.93;;;9.70;88.50;;;;;;5095740;28;20038;-72
2022/02/14 07:48:25;;;;;;;9.02;1.30;;;9.80;88.70;;;;;;5094767;28;20488;-72
2022/02/14 07:50:51;;;;;;;5.88;1.00;;;9.90;89.40;;;;;;5095026;28;20027;-72
2022/02/14 07:53:18;;;;;;;4.40;1.00;;;10.00;89.10;;;;;;5090761;28;20034;-72
2022/02/14 07:55:43;;;;;;;5.80;1.20;;;10.10;89.30;;;;;;5083153;28;20397;-73
2022/02/14 07:58:09;;;;;;;4.57;0.90;;;10.30;89.20;;;;;;5094718;28;20039;-72
2022/02/14 08:00:36;;;;;;;6.78;1.17;;;10.40;88.70;;;;;;5090515;28;20031;-72
2022/02/14 08:03:01;;;;;;;5.72;1.20;;;10.60;88.80;;;;;;5091470;28;20070;-73
2022/02/14 08:05:27;;;;;;;6.95;1.33;;;10.70;88.50;;;;;;5094168;28;20031;-72
2022/02/14 08:07:53;;;;;;;8.07;1.60;;;10.80;88.00;;;;;;5094082;28;20028;-72
2022/02/14 08:10:18;;;;;;;3.20;1.00;;;10.90;87.60;;;;;;5093615;28;20012;-72
2022/02/14 08:12:44;;;;;;;7.10;1.27;;;10.90;87.60;;;;;;5093397;28;20523;-72
2022/02/14 08:15:10;;;;;;;4.10;0.93;;;11.10;87.70;;;;;;5093288;28;20127;-72
2022/02/14 08:17:36;;;;;;;4.13;1.20;;;11.30;87.80;;;;;;5106521;28;20035;-72
2022/02/14 08:20:03;;;;;;;4.80;1.17;;;11.40;87.60;;;;;;5091995;28;20032;-72
2022/02/14 08:22:29;;;;;;;4.45;1.30;;;11.50;86.90;;;;;;5062350;28;20034;-72
2022/02/14 08:24:54;;;;;;;9.18;1.20;;;11.50;86.20;;;;;;5072637;28;20031;-71
2022/02/14 08:27:21;;;;;;;5.78;1.13;;;11.40;84.40;;;;;;5078424;28;20115;-71
2022/02/14 08:29:47;;;;;;;6.55;1.10;;;11.30;85.70;;;;;;5083609;28;20031;-71
2022/02/14 08:32:16;;;;;;;7.85;1.30;;;11.50;87.60;;;;;;5089282;28;20048;-71
2022/02/14 08:34:42;;;;;;;3.78;0.80;;;11.60;85.70;;;;;;5075321;28;21163;-70
2022/02/14 08:37:09;;;;;;;6.55;1.48;;;11.60;85.80;;;;;;5070433;28;20061;-70
2022/02/14 08:39:35;;;;;;;7.45;1.10;;;11.90;86.50;;;;;;5065443;28;20020;-70
2022/02/14 08:42:00;;;;;;;4.72;0.88;;;12.20;86.70;;;;;;5099297;28;20053;-71
2022/02/14 08:44:26;;;;;;;3.92;0.90;;;12.40;84.40;;;;;;5091124;28;20032;-70
2022/02/14 08:46:52;;;;;;;3.65;0.93;;;12.50;85.00;;;;;;5100137;28;20023;-70
2022/02/14 08:49:17;;;;;;;3.25;1.10;;;12.50;83.40;;;;;;5102021;28;20102;-71
2022/02/14 08:51:43;;;;;;;3.88;1.10;;;12.60;83.90;;;;;;5094178;28;20474;-71
2022/02/14 08:54:08;;;;;;;4.68;1.00;;;12.90;84.60;;;;;;5086923;28;20034;-71
2022/02/14 08:56:34;;;;;;;5.82;1.17;;;13.00;83.40;;;;;;5097617;28;20020;-71
2022/02/14 08:59:00;;;;;;;4.55;0.88;;;12.90;80.70;;;;;;5108385;28;20039;-69
2022/02/14 09:01:25;;;;;;;4.28;1.08;;;12.80;82.00;;;;;;5094170;28;20051;-68
2022/02/14 09:03:53;;;;;;;5.75;1.20;;;12.90;83.20;;;;;;5095246;28;20032;-68
2022/02/14 09:06:19;;;;;;;5.25;1.00;;;13.10;83.70;;;;;;5069726;28;20028;-68
2022/02/14 09:08:45;;;;;;;4.65;1.10;;;13.00;82.00;;;;;;5095151;28;20036;-68
2022/02/14 09:11:11;;;;;;;4.30;0.93;;;12.90;81.40;;;;;;5093491;28;20145;-68
2022/02/14 09:13:37;;;;;;;3.38;0.85;;;12.90;82.20;;;;;;5093363;28;20119;-66
2022/02/14 09:16:04;;;;;;;1.70;0.68;;;13.10;83.20;;;;;;5091781;28;20032;-71
2022/02/14 09:18:33;;;;;;;6.40;1.00;;;13.00;81.50;;;;;;5082653;28;20045;-72
2022/02/14 09:20:59;;;;;;;4.40;1.17;;;12.80;81.20;;;;;;5096677;28;20024;-71
2022/02/14 09:23:25;;;;;;;5.30;0.95;;;12.60;80.70;;;;;;5078834;28;20020;-69
2022/02/14 09:25:50;;;;;;;2.95;0.63;;;12.30;80.00;;;;;;5080203;28;20522;-70
2022/02/14 09:28:16;;;;;;;2.03;0.57;;;12.10;81.10;;;;;;5090829;28;20043;-69
2022/02/14 09:30:41;;;;;;;4.20;0.82;;;12.00;82.10;;;;;;5095705;28;20024;-71
2022/02/14 09:33:07;;;;;;;3.38;0.90;;;11.80;81.80;;;;;;5122204;27;20047;-71
2022/02/14 09:35:33;;;;;;;2.55;0.60;;;11.70;82.40;;;;;;5092472;28;20056;-70
2022/02/14 09:38:01;;;;;;;4.15;0.85;;;11.50;81.90;;;;;;5098004;28;20024;-68
2022/02/14 09:40:28;;;;;;;3.60;0.70;;;11.40;82.30;;;;;;5095992;28;20031;-68
2022/02/14 09:42:56;;;;;;;4.03;0.70;;;11.30;83.10;;;;;;5084558;28;20050;-69
2022/02/14 09:45:24;;;;;;;5.18;0.90;;;11.30;84.00;;;;;;5093387;28;20095;-69
2022/02/14 09:48:07;;;;;;;6.38;0.90;;;11.30;84.00;;;;;;5090616;28;20040;-67
2022/02/14 09:50:34;;;;;;;3.95;0.90;;;11.40;85.80;;;;;;5086777;28;20397;-68
2022/02/14 09:53:02;;;;;;;3.58;0.85;;;11.70;85.20;;;;;;5095829;28;20518;-68
2022/02/14 09:55:28;;;;;;;4.43;1.15;;;11.80;85.40;;;;;;5087173;28;20048;-69
2022/02/14 09:57:53;;;;;;;4.13;1.05;;;12.20;86.60;;;;;;5108213;27;20132;-68
2022/02/14 10:00:19;;;;;;;3.60;0.90;;;12.70;87.00;;;;;;5085614;28;20020;-68
2022/02/14 10:02:46;;;;;;;7.10;1.15;;;13.10;86.60;;;;;;5091845;28;20435;-68
2022/02/14 10:05:18;;;;;;;5.32;1.10;;;13.50;85.60;;;;;;5090337;28;25259;-69
2022/02/14 10:07:52;;;;;;;5.32;1.20;;;14.00;85.80;;;;;;5086070;28;20607;-69
2022/02/14 10:10:25;;;;;;;3.83;0.90;;;14.20;83.40;;;;;;5071969;28;20268;-71
2022/02/14 10:12:55;;;;;;;3.63;0.90;;;14.60;83.90;;;;;;5069733;28;20028;-71
2022/02/14 10:15:22;;;;;;;5.25;0.95;;;14.70;81.70;;;;;;5091253;28;20055;-68
2022/02/14 10:17:54;;;;;;;3.58;0.80;;;14.80;80.60;;;;;;5083536;28;20017;-69
2022/02/14 10:20:21;;;;;;;3.45;1.02;;;14.80;79.90;;;;;;5117548;27;20262;-69
2022/02/14 10:23:04;;;;;;;3.20;0.65;;;14.90;80.70;;;;;;5102233;28;20399;-69
2022/02/14 10:25:31;;;;;;;4.03;1.00;;;14.70;78.70;;;;;;5088743;28;20096;-69
2022/02/14 10:28:19;;;;;;;3.58;1.10;;;14.30;77.00;;;;;;5101250;28;20109;-68
2022/02/14 10:31:04;;;;;;;2.72;0.90;;;14.10;80.00;;;;;;5078256;28;20024;-68
2022/02/14 10:33:55;;;;;;;5.80;0.80;;;14.20;80.60;;;;;;5116101;27;20036;-68
2022/02/14 10:36:36;;;;;;;1.90;0.60;;;14.30;82.00;;;;;;5074042;28;20915;-69
2022/02/14 10:39:32;;;;;;;3.15;0.60;;;14.50;80.50;;;;;;5067429;28;20080;-70
2022/02/14 10:42:10;;;;;;;3.83;0.63;;;14.80;82.10;;;;;;5077080;28;20040;-69
2022/02/14 10:47:24;;;;;;;4.30;1.25;;;14.80;79.10;;;;;;5083969;28;20047;-69
2022/02/14 10:50:19;;;;;;;3.80;0.60;;;15.00;78.90;;;;;;5086556;28;20236;-69
2022/02/14 10:52:48;;;;;;;3.25;0.68;;;15.10;78.20;;;;;;5096381;28;20074;-69
2022/02/14 10:55:17;;;;;;;4.65;1.00;;;15.10;77.80;;;;;;5085160;28;20050;-69
2022/02/14 10:57:45;;;;;;;4.95;0.80;;;14.80;75.10;;;;;;5074750;28;20648;-71
2022/02/14 11:00:15;;;;;;;3.75;0.90;;;14.70;76.90;;;;;;5067187;28;20035;-70
2022/02/14 11:02:47;;;;;;;4.97;1.00;;;14.90;78.10;;;;;;5086618;28;20035;-68
2022/02/14 11:05:14;;;;;;;4.68;0.93;;;15.20;78.70;;;;;;5087613;28;20036;-72
2022/02/14 11:07:41;;;;;;;3.25;1.15;;;15.50;80.00;;;;;;5086989;28;20523;-70
2022/02/14 11:10:10;;;;;;;3.80;0.88;;;15.70;77.60;;;;;;5087935;28;20411;-73
2022/02/14 11:12:39;;;;;;;4.25;0.80;;;15.60;75.30;;;;;;5105945;27;20027;-69
2022/02/14 11:15:07;;;;;;;3.13;0.70;;;15.30;74.80;;;;;;5088292;28;20124;-69
2022/02/14 11:17:34;;;;;;;4.50;1.02;;;15.30;76.50;;;;;;5088648;28;20461;-70
2022/02/14 11:20:05;;;;;;;3.15;0.73;;;15.60;77.20;;;;;;5071659;28;20396;-70
2022/02/14 11:22:43;;;;;;;2.60;0.77;;;15.60;75.50;;;;;;5088568;28;20036;-69
2022/02/14 11:25:09;;;;;;;2.33;0.63;;;15.60;77.30;;;;;;5087488;28;20515;-69
2022/02/14 11:27:54;;;;;;;2.85;0.90;;;15.90;76.70;;;;;;5088614;28;20032;-69
2022/02/14 11:30:19;;;;;;;2.75;0.73;;;16.30;77.10;;;;;;5072394;28;20024;-70
2022/02/14 11:33:05;;;;;;;4.07;0.77;;;16.50;75.40;;;;;;5099773;28;20024;-72
2022/02/14 11:35:31;;;;;;;2.75;0.60;;;16.50;76.80;;;;;;5088224;28;20020;-71
2022/02/14 11:38:00;;;;;;;4.05;0.68;;;16.40;73.10;;;;;;5099434;28;20020;-69
2022/02/14 11:40:42;;;;;;;2.78;1.00;;;16.50;74.90;;;;;;5089310;28;20489;-68
2022/02/14 11:43:24;;;;;;;3.67;0.93;;;16.70;75.60;;;;;;5064183;28;20469;-69
2022/02/14 11:46:08;;;;;;;3.55;0.63;;;16.60;73.30;;;;;;5110020;27;20038;-69
2022/02/14 11:48:34;;;;;;;3.15;0.65;;;16.60;75.30;;;;;;5085136;28;20028;-69
2022/02/14 11:51:35;;;;;;;6.28;0.70;;;16.30;71.50;;;;;;5094746;28;20051;-69
2022/02/14 11:54:04;;;;;;;3.92;0.60;;;16.20;75.00;;;;;;5086471;28;20065;-69
2022/02/14 11:56:32;;;;;;;2.95;0.77;;;16.40;75.10;;;;;;5098208;28;20041;-69
2022/02/14 11:59:15;;;;;;;4.30;0.70;;;16.50;74.10;;;;;;5095522;28;20022;-69
2022/02/14 12:01:50;;;;;;;2.90;0.60;;;16.40;73.20;;;;;;5095838;28;20144;-68
2022/02/14 12:07:17;;;;;;;4.35;0.80;;;15.70;72.90;;;;;;5088231;28;20032;-69
2022/02/14 12:13:00;;;;;;;2.35;0.60;;;15.40;73.50;;;;;;5085114;28;20507;-71
2022/02/14 12:20:50;;;;;;;1.85;0.60;;;15.00;72.00;;;;;;5086660;28;20444;-75
2022/02/14 12:23:32;;;;;;;2.58;0.80;;;14.80;73.50;;;;;;5099857;28;20526;-78
2022/02/14 12:25:59;;;;;;;3.08;0.70;;;14.70;73.40;;;;;;5079646;28;20417;-75
2022/02/14 12:28:26;;;;;;;2.67;0.75;;;14.50;73.00;;;;;;5094873;28;20047;-73
2022/02/14 12:30:53;;;;;;;4.32;0.68;;;14.50;72.90;;;;;;5065592;28;20079;-70
2022/02/14 12:33:19;;;;;;;2.10;0.40;;;14.40;73.10;;;;;;5085736;28;20038;-70
2022/02/14 12:35:46;;;;;;;0.40;0.20;;;14.20;71.20;;;;;;5088078;28;20097;-72
2022/02/14 12:38:13;;;;;;;0.55;0.20;;;13.90;72.40;;;;;;5087142;28;20064;-69
2022/02/14 12:40:50;;;;;;;0.60;0.20;;;13.70;72.00;;;;;;5079870;28;20205;-69
2022/02/14 12:43:43;;;;;;;0.50;0.20;;;13.40;71.70;;;;;;5085232;28;20107;-68
2022/02/14 12:46:08;;;;;;;0.20;0.10;;;13.30;72.90;;;;;;5084131;28;20093;-70
2022/02/14 12:48:37;;;;;;;0.30;0.20;;;13.10;73.00;;;;;;5079586;28;20531;-71
2022/02/14 12:51:20;;;;;;;0.73;0.20;;;13.10;73.80;;;;;;5074915;28;20062;-71
2022/02/14 12:53:51;;;;;;;0.17;0.10;;;13.00;74.20;;;;;;5109568;28;20028;-71
2022/02/14 12:56:28;;;;;;;0.88;0.20;;;12.90;75.20;;;;;;5071986;28;20050;-72
2022/02/14 12:58:59;;;;;;;0.25;0.10;;;12.80;74.20;;;;;;5089737;28;20034;-72
2022/02/14 13:01:27;;;;;;;0.20;0.10;;;12.80;74.50;;;;;;5087161;28;20425;-72
2022/02/14 13:04:06;;;;;;;0.40;0.10;;;12.70;74.60;;;;;;5072978;28;20024;-73
2022/02/14 13:06:39;;;;;;;0.63;0.20;;;12.60;75.20;;;;;;5067712;28;20115;-71
2022/02/14 13:09:29;;;;;;;1.08;0.20;;;12.70;75.20;;;;;;5087856;28;20023;-73